createdAt,value
2019-03-26T00:01:54.826Z,99346.85
2019-03-26T00:04:21.899Z,99354.59
2019-03-26T00:06:48.909Z,99352.89
2019-03-26T00:09:15.949Z,99355.17
2019-03-26T00:11:43.389Z,99346.66
2019-03-26T00:14:10.775Z,99357.98
2019-03-26T00:16:37.868Z,99361.11
2019-03-26T00:19:05.105Z,99362.05
2019-03-26T00:22:02.379Z,99358.70
2019-03-26T00:24:29.567Z,99364.85
2019-03-26T00:26:56.606Z,99364.90
2019-03-26T00:29:23.769Z,99375.74
2019-03-26T00:31:50.941Z,99366.64
2019-03-26T00:34:19.502Z,99368.75
2019-03-26T00:36:46.978Z,99368.75
2019-03-26T00:39:14.045Z,99372.17
2019-03-26T00:41:41.243Z,99378.64
2019-03-26T00:44:09.316Z,99381.67
2019-03-26T00:46:36.342Z,99381.25
2019-03-26T00:49:03.832Z,99379.94
2019-03-26T00:51:30.953Z,99379.97
2019-03-26T00:53:58.328Z,99389.99
2019-03-26T00:56:27.456Z,99394.34
2019-03-26T00:58:54.894Z,99397.41
2019-03-26T01:01:21.988Z,99402.27
2019-03-26T01:03:49.205Z,99396.66
2019-03-26T01:06:16.220Z,99402.77
2019-03-26T01:08:43.371Z,99402.88
2019-03-26T01:11:10.410Z,99403.32
2019-03-26T01:13:37.485Z,99406.77
2019-03-26T01:16:05.443Z,99402.06
2019-03-26T01:18:32.512Z,99403.75
2019-03-26T01:20:59.634Z,99405.05
2019-03-26T01:23:26.713Z,99406.41
2019-03-26T01:25:54.565Z,99412.97
2019-03-26T01:28:21.564Z,99409.09
2019-03-26T01:30:48.664Z,99414.29
2019-03-26T01:33:15.727Z,99409.98
2019-03-26T01:35:43.551Z,99413.03
2019-03-26T01:38:11.705Z,99406.13
2019-03-26T01:40:38.711Z,99410.45
2019-03-26T01:43:05.737Z,99413.11
2019-03-26T01:45:32.800Z,99411.75
2019-03-26T01:48:02.062Z,99417.91
2019-03-26T01:50:29.130Z,99417.01
2019-03-26T01:52:56.403Z,99415.28
2019-03-26T01:55:23.428Z,99416.95
2019-03-26T01:57:50.527Z,99416.08
2019-03-26T02:00:17.714Z,99420.83
2019-03-26T02:02:44.718Z,99416.93
2019-03-26T02:05:11.772Z,99420.39
2019-03-26T02:07:39.116Z,99412.14
2019-03-26T02:10:06.448Z,99423.81
2019-03-26T02:12:33.506Z,99414.27
2019-03-26T02:15:01.661Z,99415.09
2019-03-26T02:17:29.116Z,99418.02
2019-03-26T02:19:56.227Z,99418.88
2019-03-26T02:22:23.272Z,99419.63
2019-03-26T02:24:50.399Z,99413.84
2019-03-26T02:27:17.431Z,99412.94
2019-03-26T02:29:44.496Z,99417.14
2019-03-26T02:32:11.581Z,99421.37
2019-03-26T02:34:38.670Z,99423.88
2019-03-26T02:37:05.778Z,99425.09
2019-03-26T02:39:32.890Z,99426.34
2019-03-26T02:41:59.968Z,99431.02
2019-03-26T02:44:27.077Z,99435.70
2019-03-26T02:46:54.129Z,99436.02
2019-03-26T02:49:21.334Z,99445.06
2019-03-26T02:51:48.683Z,99448.11
2019-03-26T02:54:15.922Z,99442.04
2019-03-26T02:56:43.109Z,99439.05
2019-03-26T02:59:10.511Z,99437.30
2019-03-26T03:01:37.975Z,99436.00
2019-03-26T03:04:05.003Z,99434.22
2019-03-26T03:06:32.378Z,99434.11
2019-03-26T03:08:59.474Z,99439.23
2019-03-26T03:11:26.498Z,99437.39
2019-03-26T03:13:54.468Z,99444.19
2019-03-26T03:16:21.579Z,99442.84
2019-03-26T03:18:48.663Z,99442.78
2019-03-26T03:21:15.728Z,99444.53
2019-03-26T03:23:42.814Z,99445.89
2019-03-26T03:26:12.185Z,99450.66
2019-03-26T03:28:39.247Z,99454.22
2019-03-26T03:31:06.545Z,99460.00
2019-03-26T03:33:33.640Z,99457.86
2019-03-26T03:36:01.273Z,99454.72
2019-03-26T03:38:28.285Z,99451.56
2019-03-26T03:40:55.510Z,99459.30
2019-03-26T03:43:22.689Z,99459.20
2019-03-26T03:45:51.772Z,99466.52
2019-03-26T03:48:19.013Z,99467.70
2019-03-26T03:50:46.761Z,99465.86
2019-03-26T03:53:15.579Z,99470.02
2019-03-26T03:55:43.052Z,99478.66
2019-03-26T03:58:10.169Z,99486.29
2019-03-26T04:00:38.540Z,99483.24
2019-03-26T04:03:06.131Z,99491.84
2019-03-26T04:05:33.712Z,99492.30
2019-03-26T04:08:00.845Z,99497.70
2019-03-26T04:10:28.237Z,99492.60
2019-03-26T04:12:55.342Z,99495.20
2019-03-26T04:15:22.689Z,99496.86
2019-03-26T04:17:49.980Z,99495.50
2019-03-26T04:20:17.784Z,99493.59
2019-03-26T04:22:45.962Z,99493.08
2019-03-26T04:25:13.957Z,99500.73
2019-03-26T04:27:41.013Z,99501.88
2019-03-26T04:30:09.258Z,99500.88
2019-03-26T04:32:36.372Z,99497.73
2019-03-26T04:35:03.650Z,99499.31
2019-03-26T04:37:30.755Z,99494.88
2019-03-26T04:39:57.837Z,99499.92
2019-03-26T04:42:25.202Z,99496.72
2019-03-26T04:44:52.391Z,99505.27
2019-03-26T04:47:19.439Z,99505.09
2019-03-26T04:49:46.543Z,99503.66
2019-03-26T04:52:13.631Z,99508.71
2019-03-26T04:54:40.704Z,99512.18
2019-03-26T04:57:07.812Z,99497.95
2019-03-26T04:59:35.193Z,99503.17
2019-03-26T05:02:02.528Z,99504.58
2019-03-26T05:04:29.637Z,99514.88
2019-03-26T05:06:57.238Z,99507.06
2019-03-26T05:09:24.739Z,99515.27
2019-03-26T05:12:01.328Z,99508.11
2019-03-26T05:14:28.537Z,99519.75
2019-03-26T05:16:55.612Z,99516.10
2019-03-26T05:19:22.714Z,99510.39
2019-03-26T05:21:52.729Z,99512.42
2019-03-26T05:24:19.892Z,99509.38
2019-03-26T05:26:50.132Z,99514.83
2019-03-26T05:29:17.402Z,99516.51
2019-03-26T05:31:44.543Z,99516.44
2019-03-26T05:34:24.063Z,99512.09
2019-03-26T05:36:52.079Z,99509.50
2019-03-26T05:39:22.259Z,99518.08
2019-03-26T05:41:51.395Z,99516.75
2019-03-26T05:44:18.490Z,99515.48
2019-03-26T05:46:45.725Z,99516.33
2019-03-26T05:49:13.469Z,99510.38
2019-03-26T05:51:40.559Z,99515.96
2019-03-26T05:54:07.620Z,99521.64
2019-03-26T05:56:34.788Z,99520.37
2019-03-26T05:59:01.844Z,99518.84
2019-03-26T06:01:34.039Z,99516.27
2019-03-26T06:06:35.816Z,99513.04
2019-03-26T06:09:04.719Z,99509.33
2019-03-26T06:11:31.850Z,99519.50
2019-03-26T06:14:04.268Z,99514.55
2019-03-26T06:16:38.505Z,99516.55
2019-03-26T06:19:10.174Z,99518.13
2019-03-26T06:21:38.358Z,99509.66
2019-03-26T06:24:05.622Z,99511.38
2019-03-26T06:26:43.160Z,99515.48
2019-03-26T06:29:10.560Z,99512.88
2019-03-26T06:31:37.681Z,99519.80
2019-03-26T06:34:05.295Z,99523.25
2019-03-26T06:36:32.426Z,99529.75
2019-03-26T06:39:09.292Z,99527.22
2019-03-26T06:41:37.529Z,99521.16
2019-03-26T06:44:04.789Z,99528.07
2019-03-26T06:46:42.209Z,99521.66
2019-03-26T06:49:00.929Z,99530.37
2019-03-26T06:51:28.151Z,99531.79
2019-03-26T06:53:55.593Z,99539.25
2019-03-26T06:56:23.073Z,99534.98
2019-03-26T06:58:50.253Z,99537.56
2019-03-26T07:01:17.489Z,99541.95
2019-03-26T07:03:47.170Z,99537.27
2019-03-26T07:06:15.405Z,99535.00
2019-03-26T07:08:42.737Z,99539.45
2019-03-26T07:11:10.036Z,99537.78
2019-03-26T07:13:44.151Z,99540.88
2019-03-26T07:16:13.191Z,99546.56
2019-03-26T07:18:58.728Z,99547.14
2019-03-26T07:21:28.535Z,99547.62
2019-03-26T07:23:56.420Z,99556.11
2019-03-26T07:26:43.581Z,99561.56
2019-03-26T07:29:10.709Z,99570.73
2019-03-26T07:31:37.850Z,99571.72
2019-03-26T07:34:07.217Z,99583.24
2019-03-26T07:36:34.388Z,99575.45
2019-03-26T07:39:01.668Z,99583.34
2019-03-26T07:41:30.029Z,99581.51
2019-03-26T07:43:57.281Z,99577.99
2019-03-26T07:46:24.833Z,99594.94
2019-03-26T07:48:58.827Z,99587.56
2019-03-26T07:51:31.585Z,99588.77
2019-03-26T07:54:00.179Z,99586.56
2019-03-26T07:56:28.015Z,99591.19
2019-03-26T07:58:55.459Z,99592.27
2019-03-26T08:01:22.806Z,99590.53
2019-03-26T08:03:50.525Z,99596.88
2019-03-26T08:06:18.382Z,99601.12
2019-03-26T08:08:45.554Z,99606.58
2019-03-26T08:11:12.763Z,99613.70
2019-03-26T08:13:41.115Z,99596.31
2019-03-26T08:16:08.286Z,99607.72
2019-03-26T08:18:44.146Z,99606.22
2019-03-26T08:21:18.244Z,99608.05
2019-03-26T08:23:45.517Z,99606.47
2019-03-26T08:26:12.967Z,99609.31
2019-03-26T08:28:43.784Z,99618.92
2019-03-26T08:31:11.385Z,99624.28
2019-03-26T08:33:38.860Z,99621.42
2019-03-26T08:36:06.092Z,99629.06
2019-03-26T08:38:33.691Z,99635.19
2019-03-26T08:41:00.873Z,99640.12
2019-03-26T08:43:28.000Z,99635.63
2019-03-26T08:45:55.093Z,99634.06
2019-03-26T08:48:22.289Z,99637.94
2019-03-26T08:50:49.366Z,99628.75
2019-03-26T08:53:16.434Z,99622.94
2019-03-26T08:55:43.554Z,99633.91
2019-03-26T08:58:10.682Z,99639.04
2019-03-26T09:00:37.929Z,99636.99
2019-03-26T09:03:06.440Z,99638.66
2019-03-26T09:05:34.090Z,99645.80
2019-03-26T09:08:02.755Z,99637.19
2019-03-26T09:10:32.414Z,99635.95
2019-03-26T09:12:59.517Z,99631.27
2019-03-26T09:15:26.662Z,99639.38
2019-03-26T09:17:54.030Z,99643.94
2019-03-26T09:20:22.457Z,99649.52
2019-03-26T09:22:58.059Z,99646.57
2019-03-26T09:25:25.416Z,99648.42
2019-03-26T09:27:52.827Z,99650.93
2019-03-26T09:30:20.356Z,99646.24
2019-03-26T09:32:47.531Z,99653.05
2019-03-26T09:35:18.478Z,99647.72
2019-03-26T09:37:45.531Z,99651.48
2019-03-26T09:40:14.558Z,99650.87
2019-03-26T09:42:41.917Z,99648.27
2019-03-26T09:45:09.575Z,99654.45
2019-03-26T09:47:37.009Z,99646.80
2019-03-26T09:50:05.674Z,99650.89
2019-03-26T09:52:32.743Z,99641.73
2019-03-26T09:54:59.913Z,99645.00
2019-03-26T09:57:27.148Z,99637.25
2019-03-26T09:59:56.384Z,99643.69
2019-03-26T10:02:23.693Z,99640.80
2019-03-26T10:04:50.762Z,99632.67
2019-03-26T10:07:23.735Z,99629.67
2019-03-26T10:09:53.187Z,99616.06
2019-03-26T10:12:20.498Z,99617.78
2019-03-26T10:14:50.130Z,99618.80
2019-03-26T10:17:18.783Z,99619.72
2019-03-26T10:19:46.377Z,99624.23
2019-03-26T10:22:14.124Z,99626.63
2019-03-26T10:24:42.251Z,99609.82
2019-03-26T10:27:10.348Z,99599.62
2019-03-26T10:29:42.196Z,99592.69
2019-03-26T10:32:09.463Z,99595.85
2019-03-26T10:34:36.813Z,99586.27
2019-03-26T10:37:05.129Z,99581.01
2019-03-26T10:39:32.570Z,99577.95
2019-03-26T10:42:00.287Z,99568.77
2019-03-26T10:44:27.380Z,99574.01
2019-03-26T10:46:54.435Z,99565.27
2019-03-26T10:49:21.826Z,99559.98
2019-03-26T10:51:51.928Z,99558.28
2019-03-26T10:54:19.832Z,99557.84
2019-03-26T10:56:51.751Z,99556.96
2019-03-26T10:59:24.122Z,99559.61
2019-03-26T11:01:51.585Z,99562.22
2019-03-26T11:04:28.503Z,99554.77
2019-03-26T11:06:55.577Z,99546.91
2019-03-26T11:09:26.939Z,99552.52
2019-03-26T11:11:52.366Z,99547.77
2019-03-26T11:14:19.397Z,99546.93
2019-03-26T11:16:47.239Z,99542.13
2019-03-26T11:19:14.747Z,99546.03
2019-03-26T11:21:43.025Z,99542.53
2019-03-26T11:24:21.207Z,99538.52
2019-03-26T11:26:48.254Z,99545.78
2019-03-26T11:29:15.774Z,99549.30
2019-03-26T11:31:43.002Z,99550.27
2019-03-26T11:34:11.151Z,99546.44
2019-03-26T11:36:38.316Z,99546.86
2019-03-26T11:39:06.458Z,99550.86
2019-03-26T11:41:33.646Z,99553.91
2019-03-26T11:44:00.916Z,99541.63
2019-03-26T11:46:28.989Z,99547.66
2019-03-26T11:48:56.173Z,99546.61
2019-03-26T11:51:23.448Z,99539.94
2019-03-26T11:53:52.558Z,99538.23
2019-03-26T11:56:19.812Z,99531.72
2019-03-26T11:58:47.535Z,99533.92
2019-03-26T12:01:14.709Z,99535.25
2019-03-26T12:03:41.961Z,99533.45
2019-03-26T12:06:09.068Z,99531.19
2019-03-26T12:08:36.137Z,99527.24
2019-03-26T12:11:03.622Z,99525.75
2019-03-26T12:13:30.745Z,99529.86
2019-03-26T12:15:58.037Z,99525.92
2019-03-26T12:18:25.276Z,99534.25
2019-03-26T12:20:52.829Z,99528.98
2019-03-26T12:23:20.041Z,99528.98
2019-03-26T12:25:47.183Z,99519.81
2019-03-26T12:28:23.231Z,99512.40
2019-03-26T12:30:50.355Z,99518.94
2019-03-26T12:33:17.959Z,99514.15
2019-03-26T12:35:45.435Z,99512.41
2019-03-26T12:38:30.716Z,99504.98
2019-03-26T12:40:58.823Z,99503.22
2019-03-26T12:43:25.994Z,99514.16
2019-03-26T12:45:53.390Z,99506.72
2019-03-26T12:48:20.857Z,99510.20
2019-03-26T12:50:50.527Z,99508.45
2019-03-26T12:53:17.699Z,99497.54
2019-03-26T12:55:49.016Z,99500.14
2019-03-26T12:58:30.961Z,99497.55
2019-03-26T13:00:47.994Z,99495.34
2019-03-26T13:03:16.841Z,99487.50
2019-03-26T13:05:43.991Z,99482.69
2019-03-26T13:08:11.385Z,99488.38
2019-03-26T13:10:52.458Z,99486.62
2019-03-26T13:13:07.879Z,99488.34
2019-03-26T13:15:35.165Z,99494.84
2019-03-26T13:18:02.365Z,99488.27
2019-03-26T13:20:29.467Z,99495.20
2019-03-26T13:22:56.557Z,99506.11
2019-03-26T13:25:23.629Z,99508.27
2019-03-26T13:27:50.850Z,99505.61
2019-03-26T13:30:18.298Z,99504.71
2019-03-26T13:32:45.517Z,99507.77
2019-03-26T13:35:13.095Z,99502.89
2019-03-26T13:37:40.189Z,99509.47
2019-03-26T13:40:07.598Z,99509.91
2019-03-26T13:42:34.739Z,99517.67
2019-03-26T13:45:01.826Z,99519.77
2019-03-26T13:47:30.066Z,99519.36
2019-03-26T13:49:58.107Z,99512.69
2019-03-26T13:52:26.610Z,99512.69
2019-03-26T13:54:53.835Z,99517.52
2019-03-26T13:57:20.965Z,99524.06
2019-03-26T13:59:49.148Z,99520.09
2019-03-26T14:02:16.761Z,99521.34
2019-03-26T14:04:44.143Z,99520.47
2019-03-26T14:07:11.365Z,99514.38
2019-03-26T14:09:38.536Z,99513.98
2019-03-26T14:12:05.651Z,99515.73
2019-03-26T14:14:32.932Z,99513.50
2019-03-26T14:17:06.151Z,99506.09
2019-03-26T14:19:33.302Z,99510.88
2019-03-26T14:22:04.545Z,99506.08
2019-03-26T14:24:32.029Z,99511.31
2019-03-26T14:26:59.208Z,99507.45
2019-03-26T14:29:29.705Z,99506.58
2019-03-26T14:31:56.804Z,99508.33
2019-03-26T14:34:23.906Z,99507.50
2019-03-26T14:36:51.419Z,99506.14
2019-03-26T14:39:18.648Z,99508.37
2019-03-26T14:41:45.877Z,99503.16
2019-03-26T14:44:13.043Z,99495.31
2019-03-26T14:46:40.364Z,99505.31
2019-03-26T14:49:07.448Z,99503.14
2019-03-26T14:51:36.874Z,99504.89
2019-03-26T14:54:04.146Z,99502.22
2019-03-26T14:56:31.537Z,99497.86
2019-03-26T14:58:58.627Z,99501.80
2019-03-26T15:01:25.876Z,99504.45
2019-03-26T15:03:52.959Z,99497.09
2019-03-26T15:06:20.356Z,99490.55
2019-03-26T15:08:49.864Z,99500.96
2019-03-26T15:11:19.617Z,99496.16
2019-03-26T15:13:49.450Z,99505.31
2019-03-26T15:16:16.732Z,99506.14
2019-03-26T15:18:44.108Z,99505.65
2019-03-26T15:21:11.166Z,99508.69
2019-03-26T15:23:38.179Z,99509.50
2019-03-26T15:26:05.291Z,99509.52
2019-03-26T15:28:32.367Z,99508.20
2019-03-26T15:31:00.467Z,99516.91
2019-03-26T15:33:27.544Z,99512.98
2019-03-26T15:35:54.871Z,99524.65
2019-03-26T15:38:22.026Z,99516.28
2019-03-26T15:40:49.402Z,99512.81
2019-03-26T15:43:16.485Z,99514.05
2019-03-26T15:45:43.566Z,99512.73
2019-03-26T15:48:10.876Z,99505.69
2019-03-26T15:50:45.327Z,99519.19
2019-03-26T15:53:13.049Z,99512.23
2019-03-26T15:55:40.489Z,99510.85
2019-03-26T15:58:07.990Z,99512.22
2019-03-26T16:00:35.190Z,99508.66
2019-03-26T16:03:02.541Z,99507.80
2019-03-26T16:05:29.611Z,99508.22
2019-03-26T16:08:00.356Z,99514.28
2019-03-26T16:10:26.544Z,99504.26
2019-03-26T16:12:55.421Z,99514.71
2019-03-26T16:15:24.862Z,99505.13
2019-03-26T16:17:51.949Z,99507.28
2019-03-26T16:20:30.097Z,99509.91
2019-03-26T16:22:57.581Z,99507.30
2019-03-26T16:25:25.814Z,99508.52
2019-03-26T16:27:52.993Z,99505.03
2019-03-26T16:30:20.478Z,99513.28
2019-03-26T16:32:47.647Z,99514.98
2019-03-26T16:35:17.638Z,99511.48
2019-03-26T16:37:44.713Z,99511.47
2019-03-26T16:40:11.962Z,99524.91
2019-03-26T16:42:41.548Z,99517.94
2019-03-26T16:45:08.930Z,99519.20
2019-03-26T16:47:38.664Z,99523.57
2019-03-26T16:50:06.734Z,99512.25
2019-03-26T16:52:35.689Z,99523.50
2019-03-26T16:55:05.710Z,99517.39
2019-03-26T16:57:32.804Z,99523.47
2019-03-26T16:59:59.878Z,99525.16
2019-03-26T17:02:26.922Z,99528.20
2019-03-26T17:04:54.055Z,99520.80
2019-03-26T17:07:21.109Z,99525.14
2019-03-26T17:09:52.205Z,99523.80
2019-03-26T17:12:19.270Z,99530.28
2019-03-26T17:14:46.976Z,99532.02
2019-03-26T17:17:14.168Z,99526.80
2019-03-26T17:19:41.379Z,99527.24
2019-03-26T17:22:08.676Z,99518.98
2019-03-26T17:24:38.510Z,99520.22
2019-03-26T17:27:05.625Z,99528.53
2019-03-26T17:29:32.646Z,99535.05
2019-03-26T17:31:59.718Z,99522.39
2019-03-26T17:34:27.040Z,99527.23
2019-03-26T17:36:54.134Z,99522.83
2019-03-26T17:39:21.495Z,99523.70
2019-03-26T17:41:48.612Z,99522.90
2019-03-26T17:44:15.668Z,99521.20
2019-03-26T17:46:42.863Z,99522.94
2019-03-26T17:49:09.938Z,99522.90
2019-03-26T17:51:36.985Z,99530.34
2019-03-26T17:54:05.149Z,99528.98
2019-03-26T17:56:32.222Z,99524.64
2019-03-26T17:58:59.657Z,99535.50
2019-03-26T18:01:26.947Z,99536.86
2019-03-26T18:03:54.106Z,99541.59
2019-03-26T18:06:21.509Z,99546.86
2019-03-26T18:08:48.579Z,99551.16
2019-03-26T18:11:16.453Z,99547.67
2019-03-26T18:13:43.543Z,99544.64
2019-03-26T18:16:10.631Z,99549.91
2019-03-26T18:18:37.707Z,99552.98
2019-03-26T18:21:05.757Z,99548.48
2019-03-26T18:23:34.891Z,99558.55
2019-03-26T18:26:01.916Z,99561.14
2019-03-26T18:28:28.934Z,99561.59
2019-03-26T18:30:56.029Z,99565.45
2019-03-26T18:33:23.165Z,99565.05
2019-03-26T18:35:50.378Z,99568.55
2019-03-26T18:38:17.419Z,99567.60
2019-03-26T18:40:45.469Z,99571.09
2019-03-26T18:43:12.586Z,99571.08
2019-03-26T18:45:39.602Z,99573.70
2019-03-26T18:48:06.774Z,99581.09
2019-03-26T18:50:33.788Z,99581.51
2019-03-26T18:53:00.864Z,99581.51
2019-03-26T18:55:28.770Z,99577.59
2019-03-26T18:57:56.127Z,99572.72
2019-03-26T19:00:32.100Z,99581.44
2019-03-26T19:03:01.580Z,99582.73
2019-03-26T19:05:29.559Z,99593.61
2019-03-26T19:07:56.805Z,99588.80
2019-03-26T19:10:26.155Z,99590.97
2019-03-26T19:12:57.475Z,99592.66
2019-03-26T19:15:27.436Z,99597.87
2019-03-26T19:17:57.626Z,99602.66
2019-03-26T19:20:29.309Z,99598.73
2019-03-26T19:22:58.817Z,99609.63
2019-03-26T19:25:37.508Z,99604.84
2019-03-26T19:28:09.252Z,99603.08
2019-03-26T19:30:58.844Z,99607.86
2019-03-26T19:33:29.040Z,99604.41
2019-03-26T19:35:57.409Z,99607.92
2019-03-26T19:38:24.771Z,99607.00
2019-03-26T19:40:57.597Z,99606.02
2019-03-26T19:43:24.893Z,99606.47
2019-03-26T19:45:52.184Z,99603.50
2019-03-26T19:48:19.377Z,99605.16
2019-03-26T19:50:47.162Z,99603.86
2019-03-26T19:53:16.501Z,99601.73
2019-03-26T19:55:43.575Z,99608.25
2019-03-26T19:58:10.875Z,99601.25
2019-03-26T20:00:37.976Z,99609.50
2019-03-26T20:03:08.210Z,99605.58
2019-03-26T20:05:38.101Z,99609.94
2019-03-26T20:08:09.496Z,99608.25
2019-03-26T20:10:39.743Z,99610.80
2019-03-26T20:13:07.253Z,99617.33
2019-03-26T20:15:34.564Z,99621.29
2019-03-26T20:18:01.851Z,99629.11
2019-03-26T20:20:29.462Z,99635.16
2019-03-26T20:22:57.244Z,99638.16
2019-03-26T20:25:24.451Z,99635.09
2019-03-26T20:27:51.561Z,99648.99
2019-03-26T20:30:19.135Z,99648.06
2019-03-26T20:32:46.454Z,99649.78
2019-03-26T20:35:14.199Z,99647.59
2019-03-26T20:37:41.480Z,99644.53
2019-03-26T20:40:11.649Z,99654.11
2019-03-26T20:42:39.123Z,99660.17
2019-03-26T20:45:07.705Z,99661.03
2019-03-26T20:47:35.019Z,99660.52
2019-03-26T20:50:02.477Z,99661.36
2019-03-26T20:52:31.340Z,99657.36
2019-03-26T20:54:58.554Z,99666.81
2019-03-26T20:57:28.912Z,99665.94
2019-03-26T20:59:56.400Z,99668.99
2019-03-26T21:02:23.794Z,99669.40
2019-03-26T21:05:03.340Z,99676.02
2019-03-26T21:07:31.916Z,99673.78
2019-03-26T21:09:59.415Z,99676.36
2019-03-26T21:12:26.584Z,99678.19
2019-03-26T21:14:53.770Z,99672.87
2019-03-26T21:17:21.050Z,99681.56
2019-03-26T21:19:48.159Z,99681.56
2019-03-26T21:22:15.942Z,99685.04
2019-03-26T21:24:43.215Z,99690.64
2019-03-26T21:27:11.713Z,99695.00
2019-03-26T21:29:38.891Z,99694.98
2019-03-26T21:32:09.142Z,99700.20
2019-03-26T21:34:39.849Z,99690.14
2019-03-26T21:37:07.184Z,99696.28
2019-03-26T21:39:37.442Z,99697.07
2019-03-26T21:42:07.306Z,99699.67
2019-03-26T21:44:35.711Z,99701.84
2019-03-26T21:47:06.053Z,99697.50
2019-03-26T21:49:33.170Z,99699.23
2019-03-26T21:52:03.073Z,99701.42
2019-03-26T21:54:30.194Z,99700.12
2019-03-26T21:56:58.292Z,99700.10
2019-03-26T21:59:25.436Z,99692.71
2019-03-26T22:01:53.555Z,99697.92
2019-03-26T22:04:22.655Z,99702.27
2019-03-26T22:06:50.383Z,99697.03
2019-03-26T22:09:17.469Z,99696.13
2019-03-26T22:11:49.942Z,99693.55
2019-03-26T22:14:18.359Z,99701.39
2019-03-26T22:16:44.499Z,99701.39
2019-03-26T22:19:11.728Z,99704.84
2019-03-26T22:21:39.238Z,99707.91
2019-03-26T22:24:06.321Z,99710.51
2019-03-26T22:26:33.560Z,99712.65
2019-03-26T22:29:00.888Z,99714.83
2019-03-26T22:31:29.065Z,99710.94
2019-03-26T22:33:58.456Z,99718.68
2019-03-26T22:36:25.827Z,99716.59
2019-03-26T22:38:52.889Z,99721.38
2019-03-26T22:41:20.964Z,99717.47
2019-03-26T22:43:48.277Z,99723.09
2019-03-26T22:46:17.523Z,99715.27
2019-03-26T22:48:47.012Z,99713.47
2019-03-26T22:51:15.114Z,99717.90
2019-03-26T22:53:42.191Z,99723.54
2019-03-26T22:56:11.339Z,99727.45
2019-03-26T22:58:38.972Z,99734.37
2019-03-26T23:01:08.432Z,99729.53
2019-03-26T23:03:35.541Z,99733.07
2019-03-26T23:06:05.346Z,99729.59
2019-03-26T23:08:33.455Z,99732.12
2019-03-26T23:11:01.353Z,99734.74
2019-03-26T23:13:28.559Z,99735.16
2019-03-26T23:15:56.393Z,99740.36
2019-03-26T23:18:23.549Z,99736.91
2019-03-26T23:20:50.732Z,99739.51
2019-03-26T23:23:17.805Z,99739.94
2019-03-26T23:25:46.908Z,99744.27
2019-03-26T23:28:14.143Z,99737.73
2019-03-26T23:30:41.488Z,99741.23
2019-03-26T23:33:08.555Z,99741.22
2019-03-26T23:35:35.915Z,99741.64
2019-03-26T23:38:04.046Z,99732.95
2019-03-26T23:40:31.928Z,99732.95
2019-03-26T23:43:01.957Z,99737.33
2019-03-26T23:45:29.085Z,99737.35
2019-03-26T23:48:00.214Z,99748.70
2019-03-26T23:50:27.276Z,99743.42
2019-03-26T23:52:57.016Z,99746.95
2019-03-26T23:55:26.497Z,99745.66
2019-03-26T23:57:54.286Z,99740.36
